createdAt,value
2018-04-26T00:01:33.139Z,97.10
2018-04-26T00:04:00.680Z,97.10
2018-04-26T00:06:28.243Z,96.70
2018-04-26T00:08:55.803Z,96.60
2018-04-26T00:11:23.467Z,96.60
2018-04-26T00:13:51.134Z,96.60
2018-04-26T00:16:18.695Z,96.80
2018-04-26T00:18:46.243Z,96.80
2018-04-26T00:21:13.811Z,97.00
2018-04-26T00:23:41.360Z,97.40
2018-04-26T00:26:08.936Z,97.30
2018-04-26T00:28:36.492Z,97.70
2018-04-26T00:31:04.066Z,97.60
2018-04-26T00:33:31.595Z,97.90
2018-04-26T00:35:59.144Z,97.80
2018-04-26T00:38:27.444Z,98.00
2018-04-26T00:40:55.005Z,98.00
2018-04-26T00:43:22.540Z,98.30
2018-04-26T00:45:51.151Z,98.40
2018-04-26T00:48:18.691Z,98.40
2018-04-26T00:50:47.039Z,98.80
2018-04-26T00:53:14.588Z,98.70
2018-04-26T00:55:42.142Z,98.60
2018-04-26T00:58:09.709Z,98.70
2018-04-26T01:00:37.280Z,98.90
2018-04-26T01:03:04.824Z,99.00
2018-04-26T01:05:32.394Z,99.20
2018-04-26T01:07:59.931Z,99.20
2018-04-26T01:10:27.516Z,99.70
2018-04-26T01:12:55.072Z,99.70
2018-04-26T01:15:22.604Z,99.80
2018-04-26T01:17:50.173Z,99.90
2018-04-26T01:20:17.729Z,99.90
2018-04-26T01:22:45.280Z,99.90
2018-04-26T01:25:12.828Z,99.90
2018-04-26T01:27:40.453Z,99.90
2018-04-26T01:30:07.990Z,99.90
2018-04-26T01:32:35.580Z,99.90
2018-04-26T01:35:03.115Z,99.90
2018-04-26T01:37:42.449Z,99.90
2018-04-26T01:40:09.995Z,99.90
2018-04-26T01:42:37.556Z,99.90
2018-04-26T01:45:05.101Z,99.90
2018-04-26T01:47:32.657Z,99.90
2018-04-26T01:50:00.207Z,99.90
2018-04-26T01:52:27.768Z,99.90
2018-04-26T01:54:55.338Z,99.90
2018-04-26T01:57:22.915Z,99.90
2018-04-26T01:59:50.447Z,99.90
2018-04-26T02:02:18.033Z,99.90
2018-04-26T02:04:45.581Z,99.90
2018-04-26T02:07:13.153Z,99.90
2018-04-26T02:09:40.705Z,99.90
2018-04-26T02:12:08.267Z,99.90
2018-04-26T02:14:35.810Z,99.90
2018-04-26T02:17:03.382Z,99.90
2018-04-26T02:19:30.967Z,99.90
2018-04-26T02:21:58.545Z,99.90
2018-04-26T02:24:26.089Z,99.90
2018-04-26T02:26:53.717Z,99.90
2018-04-26T02:29:21.278Z,99.90
2018-04-26T02:31:48.853Z,99.90
2018-04-26T02:34:16.434Z,99.90
2018-04-26T02:36:43.972Z,99.90
2018-04-26T02:39:11.545Z,99.90
2018-04-26T02:41:39.083Z,99.90
2018-04-26T02:44:06.646Z,99.90
2018-04-26T02:46:34.179Z,99.90
2018-04-26T02:49:02.510Z,99.90
2018-04-26T02:51:30.045Z,99.90
2018-04-26T02:53:57.605Z,99.90
2018-04-26T02:56:25.149Z,99.90
2018-04-26T02:58:52.714Z,99.90
2018-04-26T03:01:20.264Z,99.90
2018-04-26T03:03:48.603Z,99.90
2018-04-26T03:06:16.145Z,99.90
2018-04-26T03:08:43.706Z,99.90
2018-04-26T03:11:11.254Z,99.90
2018-04-26T03:13:38.811Z,99.90
2018-04-26T03:16:06.362Z,99.90
2018-04-26T03:18:33.943Z,99.90
2018-04-26T03:21:01.493Z,99.90
2018-04-26T03:23:29.154Z,99.90
2018-04-26T03:25:56.701Z,99.90
2018-04-26T03:28:24.286Z,99.90
2018-04-26T03:30:51.840Z,99.90
2018-04-26T03:33:19.401Z,99.90
2018-04-26T03:35:46.971Z,99.90
2018-04-26T03:38:14.528Z,99.90
2018-04-26T03:40:42.059Z,99.90
2018-04-26T03:43:10.387Z,99.90
2018-04-26T03:45:39.939Z,99.90
2018-04-26T03:48:07.521Z,99.90
2018-04-26T03:50:35.084Z,99.90
2018-04-26T03:53:02.628Z,99.90
2018-04-26T03:55:30.187Z,99.90
2018-04-26T03:57:57.752Z,99.90
2018-04-26T04:00:37.208Z,99.90
2018-04-26T04:03:16.638Z,99.90
2018-04-26T04:08:51.111Z,99.90
2018-04-26T04:11:18.637Z,99.90
2018-04-26T04:13:46.193Z,99.90
2018-04-26T04:16:14.541Z,99.90
2018-04-26T04:18:42.862Z,99.90
2018-04-26T04:21:10.429Z,99.90
2018-04-26T04:23:37.984Z,99.90
2018-04-26T04:26:05.542Z,99.90
2018-04-26T04:28:33.093Z,99.90
2018-04-26T04:31:00.652Z,99.90
2018-04-26T04:33:28.199Z,99.90
2018-04-26T04:35:55.759Z,99.90
2018-04-26T04:38:23.293Z,99.90
2018-04-26T04:40:50.855Z,99.90
2018-04-26T04:43:19.169Z,99.50
2018-04-26T04:45:46.785Z,99.40
2018-04-26T04:48:15.090Z,95.80
2018-04-26T04:50:43.437Z,94.70
2018-04-26T04:53:10.982Z,94.70
2018-04-26T04:55:38.538Z,94.10
2018-04-26T04:58:06.857Z,93.50
2018-04-26T05:00:35.195Z,93.00
2018-04-26T05:03:02.736Z,93.00
2018-04-26T05:05:30.312Z,93.00
2018-04-26T05:07:57.875Z,93.50
2018-04-26T05:10:25.442Z,94.10
2018-04-26T05:12:53.027Z,95.20
2018-04-26T05:15:20.594Z,96.00
2018-04-26T05:17:48.910Z,97.50
2018-04-26T05:20:16.489Z,97.50
2018-04-26T05:22:44.027Z,98.10
2018-04-26T05:25:11.563Z,98.30
2018-04-26T05:27:39.203Z,98.40
2018-04-26T05:30:07.554Z,98.70
2018-04-26T05:32:35.165Z,98.60
2018-04-26T05:35:02.739Z,98.50
2018-04-26T05:37:30.305Z,98.40
2018-04-26T05:39:57.847Z,98.50
2018-04-26T05:42:26.167Z,99.90
2018-04-26T05:44:53.699Z,99.90
2018-04-26T05:47:22.143Z,99.90
2018-04-26T05:49:49.703Z,99.90
2018-04-26T05:52:17.275Z,99.90
2018-04-26T05:54:44.844Z,99.90
2018-04-26T05:57:13.167Z,99.90
2018-04-26T05:59:40.726Z,99.90
2018-04-26T06:02:09.130Z,99.90
2018-04-26T06:04:37.677Z,99.90
2018-04-26T06:07:05.319Z,99.90
2018-04-26T06:09:33.613Z,99.90
2018-04-26T06:12:01.177Z,99.90
2018-04-26T06:14:28.725Z,99.00
2018-04-26T06:16:56.429Z,96.20
2018-04-26T06:19:24.746Z,93.70
2018-04-26T06:21:54.062Z,94.10
2018-04-26T06:24:21.650Z,94.10
2018-04-26T06:26:49.199Z,94.60
2018-04-26T06:29:16.759Z,94.60
2018-04-26T06:31:44.315Z,95.20
2018-04-26T06:34:11.887Z,96.00
2018-04-26T06:36:39.506Z,96.00
2018-04-26T06:39:07.843Z,96.10
2018-04-26T06:41:35.397Z,96.10
2018-04-26T06:44:02.952Z,96.50
2018-04-26T06:46:30.506Z,96.60
2018-04-26T06:48:58.066Z,96.90
2018-04-26T06:51:25.603Z,96.70
2018-04-26T06:53:53.937Z,96.60
2018-04-26T06:56:21.502Z,96.50
2018-04-26T06:58:49.057Z,96.80
2018-04-26T07:01:16.614Z,96.60
2018-04-26T07:03:44.214Z,96.60
2018-04-26T07:06:11.774Z,96.80
2018-04-26T07:08:39.324Z,97.00
2018-04-26T07:11:06.878Z,97.00
2018-04-26T07:13:34.410Z,96.70
2018-04-26T07:16:01.986Z,97.30
2018-04-26T07:18:29.536Z,96.80
2018-04-26T07:20:57.097Z,97.40
2018-04-26T07:23:24.643Z,97.30
2018-04-26T07:25:52.222Z,97.30
2018-04-26T07:28:19.767Z,97.00
2018-04-26T07:30:47.339Z,97.00
2018-04-26T07:33:14.891Z,97.10
2018-04-26T07:35:42.454Z,97.70
2018-04-26T07:38:10.011Z,98.40
2018-04-26T07:40:37.561Z,98.40
2018-04-26T07:43:05.102Z,99.00
2018-04-26T07:45:32.691Z,99.70
2018-04-26T07:48:00.230Z,99.90
2018-04-26T07:50:27.835Z,99.90
2018-04-26T07:52:55.404Z,98.90
2018-04-26T07:55:22.948Z,99.10
2018-04-26T07:57:50.566Z,98.50
2018-04-26T08:00:18.153Z,96.20
2018-04-26T08:02:45.710Z,94.70
2018-04-26T08:05:13.270Z,92.70
2018-04-26T08:07:40.834Z,91.50
2018-04-26T08:10:08.385Z,91.60
2018-04-26T08:12:35.944Z,91.40
2018-04-26T08:15:03.516Z,89.30
2018-04-26T08:17:31.076Z,88.30
2018-04-26T08:19:58.625Z,86.50
2018-04-26T08:22:26.218Z,84.60
2018-04-26T08:24:53.787Z,82.50
2018-04-26T08:27:22.139Z,81.60
2018-04-26T08:29:49.718Z,81.60
2018-04-26T08:32:17.265Z,80.70
2018-04-26T08:34:44.824Z,82.70
2018-04-26T08:37:12.375Z,81.10
2018-04-26T08:39:39.941Z,80.10
2018-04-26T08:42:07.475Z,80.40
2018-04-26T08:44:35.044Z,85.10
2018-04-26T08:47:02.579Z,85.10
2018-04-26T08:49:30.893Z,90.20
2018-04-26T08:51:58.461Z,90.10
2018-04-26T08:54:26.018Z,91.30
2018-04-26T08:56:53.573Z,93.40
2018-04-26T08:59:21.142Z,94.80
2018-04-26T09:01:48.697Z,95.60
2018-04-26T09:04:16.279Z,94.50
2018-04-26T09:06:43.939Z,95.60
2018-04-26T09:09:11.406Z,96.50
2018-04-26T09:11:38.949Z,97.90
2018-04-26T09:14:06.485Z,97.70
2018-04-26T09:16:34.075Z,97.80
2018-04-26T09:19:01.637Z,98.30
2018-04-26T09:21:29.235Z,97.90
2018-04-26T09:23:56.796Z,96.80
2018-04-26T09:26:25.122Z,97.70
2018-04-26T09:28:52.661Z,97.70
2018-04-26T09:31:20.216Z,98.20
2018-04-26T09:33:47.759Z,99.40
2018-04-26T09:36:16.084Z,99.90
2018-04-26T09:38:43.663Z,99.90
2018-04-26T09:41:11.296Z,99.90
2018-04-26T09:43:38.830Z,99.90
2018-04-26T09:46:06.383Z,99.90
2018-04-26T09:48:34.774Z,99.90
2018-04-26T09:51:02.269Z,99.90
2018-04-26T09:53:29.824Z,99.90
2018-04-26T09:55:57.386Z,99.90
2018-04-26T09:58:24.946Z,99.90
2018-04-26T10:00:53.430Z,99.90
2018-04-26T10:03:20.972Z,99.60
2018-04-26T10:05:54.158Z,99.50
2018-04-26T10:08:21.736Z,99.50
2018-04-26T10:10:49.299Z,99.10
2018-04-26T10:13:16.879Z,99.00
2018-04-26T10:15:44.435Z,98.00
2018-04-26T10:18:12.036Z,98.40
2018-04-26T10:20:40.345Z,96.90
2018-04-26T10:23:07.933Z,96.80
2018-04-26T10:25:35.500Z,96.60
2018-04-26T10:28:03.073Z,96.80
2018-04-26T10:30:30.642Z,94.80
2018-04-26T10:32:58.979Z,94.00
2018-04-26T10:35:26.560Z,94.00
2018-04-26T10:37:54.117Z,92.70
2018-04-26T10:40:21.657Z,91.60
2018-04-26T10:42:49.242Z,92.50
2018-04-26T10:45:16.785Z,92.00
2018-04-26T10:47:45.136Z,91.60
2018-04-26T10:50:12.679Z,91.60
2018-04-26T10:52:40.989Z,90.80
2018-04-26T10:55:08.546Z,90.80
2018-04-26T10:57:36.093Z,91.30
2018-04-26T11:00:03.735Z,92.40
2018-04-26T11:02:32.001Z,94.40
2018-04-26T11:05:00.333Z,95.80
2018-04-26T11:07:27.889Z,95.80
2018-04-26T11:09:55.487Z,95.60
2018-04-26T11:12:23.071Z,96.10
2018-04-26T11:14:51.484Z,96.00
2018-04-26T11:17:19.502Z,96.00
2018-04-26T11:19:47.056Z,95.30
2018-04-26T11:22:14.618Z,95.20
2018-04-26T11:24:42.177Z,92.80
2018-04-26T11:27:09.733Z,92.10
2018-04-26T11:29:37.303Z,91.80
2018-04-26T11:32:04.856Z,92.20
2018-04-26T11:34:32.439Z,92.60
2018-04-26T11:37:00.757Z,89.50
2018-04-26T11:39:28.295Z,89.50
2018-04-26T11:41:55.845Z,89.90
2018-04-26T11:44:23.395Z,90.40
2018-04-26T11:46:51.763Z,86.40
2018-04-26T11:49:19.308Z,86.20
2018-04-26T11:51:46.869Z,85.40
2018-04-26T11:54:14.420Z,84.70
2018-04-26T11:56:41.990Z,86.00
2018-04-26T11:59:09.559Z,89.50
2018-04-26T12:01:37.137Z,88.00
2018-04-26T12:04:05.456Z,87.50
2018-04-26T12:06:33.076Z,87.40
2018-04-26T12:09:00.581Z,87.50
2018-04-26T12:11:28.141Z,85.40
2018-04-26T12:13:55.701Z,86.10
2018-04-26T12:16:23.295Z,86.90
2018-04-26T12:18:50.895Z,85.50
2018-04-26T12:21:18.472Z,81.60
2018-04-26T12:23:46.030Z,85.60
2018-04-26T12:26:13.625Z,80.20
2018-04-26T12:28:41.170Z,83.50
2018-04-26T12:31:08.720Z,85.60
2018-04-26T12:33:36.307Z,87.50
2018-04-26T12:36:03.853Z,91.70
2018-04-26T12:38:31.414Z,93.70
2018-04-26T12:40:58.951Z,95.40
2018-04-26T12:43:26.547Z,95.00
2018-04-26T12:45:54.131Z,93.80
2018-04-26T12:48:21.690Z,93.30
2018-04-26T12:50:49.233Z,94.20
2018-04-26T12:53:16.810Z,92.50
2018-04-26T12:55:44.365Z,92.70
2018-04-26T12:58:11.996Z,92.60
2018-04-26T13:00:39.517Z,92.10
2018-04-26T13:03:07.078Z,93.30
2018-04-26T13:05:34.629Z,93.60
2018-04-26T13:08:03.045Z,94.10
2018-04-26T13:10:30.529Z,94.10
2018-04-26T13:12:58.084Z,94.70
2018-04-26T13:15:25.684Z,94.30
2018-04-26T13:17:54.011Z,95.50
2018-04-26T13:20:21.580Z,95.80
2018-04-26T13:22:49.131Z,97.20
2018-04-26T13:25:16.715Z,98.70
2018-04-26T13:27:44.258Z,99.40
2018-04-26T13:30:11.843Z,99.90
2018-04-26T13:32:39.378Z,99.90
2018-04-26T13:35:06.940Z,99.90
2018-04-26T13:37:34.504Z,99.90
2018-04-26T13:40:02.063Z,99.90
2018-04-26T13:42:29.616Z,99.60
2018-04-26T13:44:57.197Z,98.30
2018-04-26T13:47:24.733Z,98.40
2018-04-26T13:49:52.270Z,98.50
2018-04-26T13:52:19.836Z,97.50
2018-04-26T13:54:47.377Z,97.50
2018-04-26T13:57:15.712Z,96.90
2018-04-26T13:59:43.272Z,96.80
2018-04-26T14:02:10.876Z,97.00
2018-04-26T14:04:39.193Z,97.20
2018-04-26T14:07:06.745Z,97.20
2018-04-26T14:09:34.298Z,96.10
2018-04-26T14:12:01.954Z,96.40
2018-04-26T14:14:29.466Z,95.50
2018-04-26T14:16:57.067Z,95.40
2018-04-26T14:19:24.613Z,94.60
2018-04-26T14:21:52.930Z,93.50
2018-04-26T14:24:20.510Z,93.50
2018-04-26T14:26:48.050Z,93.40
2018-04-26T14:29:15.716Z,94.30
2018-04-26T14:31:43.178Z,92.00
2018-04-26T14:34:10.774Z,93.90
2018-04-26T14:36:38.340Z,91.40
2018-04-26T14:39:05.895Z,91.10
2018-04-26T14:41:33.458Z,91.30
2018-04-26T14:44:01.041Z,91.10
2018-04-26T14:46:28.589Z,90.20
2018-04-26T14:48:56.925Z,91.40
2018-04-26T14:51:24.462Z,91.30
2018-04-26T14:53:52.045Z,89.80
2018-04-26T14:56:19.591Z,90.00
2018-04-26T14:58:47.196Z,90.30
2018-04-26T15:01:14.743Z,90.00
2018-04-26T15:03:42.289Z,90.60
2018-04-26T15:06:09.867Z,90.50
2018-04-26T15:08:37.449Z,90.50
2018-04-26T15:11:05.809Z,92.10
2018-04-26T15:13:33.364Z,92.10
2018-04-26T15:16:00.933Z,94.30
2018-04-26T15:18:28.466Z,95.60
2018-04-26T15:20:56.043Z,97.00
2018-04-26T15:23:24.388Z,97.20
2018-04-26T15:25:52.340Z,97.20
2018-04-26T15:28:19.891Z,97.40
2018-04-26T15:30:48.320Z,97.80
2018-04-26T15:33:15.868Z,97.80
2018-04-26T15:35:43.467Z,97.20
2018-04-26T15:38:11.012Z,97.80
2018-04-26T15:40:38.559Z,97.70
2018-04-26T15:43:06.114Z,97.00
2018-04-26T15:45:33.673Z,97.30
2018-04-26T15:48:01.236Z,96.30
2018-04-26T15:50:34.590Z,95.60
2018-04-26T15:53:14.877Z,95.60
2018-04-26T15:55:54.240Z,95.50
2018-04-26T16:02:01.072Z,95.40
2018-04-26T16:04:40.454Z,95.80
2018-04-26T16:07:48.149Z,95.50
2018-04-26T16:10:27.538Z,95.90
2018-04-26T16:13:12.651Z,94.80
2018-04-26T16:15:57.909Z,94.40
2018-04-26T16:21:39.915Z,95.00
2018-04-26T16:24:19.084Z,94.40
2018-04-26T16:27:04.574Z,94.10
2018-04-26T16:29:44.146Z,93.20
2018-04-26T16:32:29.357Z,94.30
2018-04-26T16:35:15.376Z,92.80
2018-04-26T16:38:00.493Z,92.80
2018-04-26T16:40:28.062Z,93.00
2018-04-26T16:42:55.617Z,92.60
2018-04-26T16:45:23.175Z,92.50
2018-04-26T16:47:50.810Z,93.10
2018-04-26T16:50:18.358Z,93.50
2018-04-26T16:52:45.942Z,93.90
2018-04-26T16:55:13.530Z,93.60
2018-04-26T16:57:41.098Z,93.70
2018-04-26T17:00:08.628Z,93.80
2018-04-26T17:02:36.193Z,93.70
2018-04-26T17:05:03.740Z,94.30
2018-04-26T17:07:31.302Z,94.20
2018-04-26T17:09:58.856Z,94.70
2018-04-26T17:12:27.422Z,94.60
2018-04-26T17:14:54.960Z,94.00
2018-04-26T17:17:23.320Z,93.70
2018-04-26T17:19:50.858Z,93.70
2018-04-26T17:22:18.428Z,93.60
2018-04-26T17:24:46.025Z,93.30
2018-04-26T17:27:13.580Z,93.60
2018-04-26T17:29:41.956Z,93.90
2018-04-26T17:32:10.379Z,93.90
2018-04-26T17:34:37.950Z,93.80
2018-04-26T17:37:05.493Z,94.40
2018-04-26T17:39:33.101Z,94.30
2018-04-26T17:42:00.646Z,94.60
2018-04-26T17:44:28.219Z,95.00
2018-04-26T17:46:55.761Z,95.20
2018-04-26T17:49:23.339Z,95.10
2018-04-26T17:51:50.890Z,95.30
2018-04-26T17:54:18.478Z,95.50
2018-04-26T17:56:46.808Z,95.40
2018-04-26T17:59:14.362Z,95.40
2018-04-26T18:01:41.926Z,95.30
2018-04-26T18:04:09.479Z,95.70
2018-04-26T18:06:37.052Z,96.00
2018-04-26T18:09:04.604Z,95.80
2018-04-26T18:11:32.159Z,96.00
2018-04-26T18:13:59.712Z,95.90
2018-04-26T18:16:27.282Z,95.60
2018-04-26T18:18:54.809Z,96.40
2018-04-26T18:21:23.136Z,96.80
2018-04-26T18:23:50.702Z,96.80
2018-04-26T18:26:18.310Z,97.00
2018-04-26T18:28:46.628Z,97.30
2018-04-26T18:31:14.203Z,97.30
2018-04-26T18:33:41.809Z,97.40
2018-04-26T18:36:09.344Z,97.20
2018-04-26T18:38:36.894Z,97.40
2018-04-26T18:41:05.409Z,97.40
2018-04-26T18:43:33.789Z,96.50
2018-04-26T18:46:01.333Z,96.50
2018-04-26T18:48:28.920Z,96.50
2018-04-26T18:50:57.245Z,96.20
2018-04-26T18:53:24.811Z,96.20
2018-04-26T18:55:52.925Z,96.30
2018-04-26T18:58:21.331Z,96.60
2018-04-26T19:00:48.916Z,96.50
2018-04-26T19:03:16.505Z,96.50
2018-04-26T19:05:44.060Z,96.60
2018-04-26T19:08:11.658Z,96.80
2018-04-26T19:10:39.986Z,96.60
2018-04-26T19:13:07.534Z,96.60
2018-04-26T19:15:35.093Z,96.90
2018-04-26T19:18:02.639Z,97.30
2018-04-26T19:20:30.212Z,97.30
2018-04-26T19:22:57.740Z,97.40
2018-04-26T19:25:26.067Z,97.90
2018-04-26T19:27:53.690Z,97.80
2018-04-26T19:30:21.212Z,97.80
2018-04-26T19:32:48.758Z,98.10
2018-04-26T19:35:16.318Z,98.10
2018-04-26T19:37:43.884Z,97.80
2018-04-26T19:40:11.447Z,97.80
2018-04-26T19:42:38.999Z,97.90
2018-04-26T19:45:06.554Z,97.80
2018-04-26T19:47:34.136Z,97.90
2018-04-26T19:50:01.730Z,98.00
2018-04-26T19:52:29.320Z,98.20
2018-04-26T19:54:56.876Z,98.40
2018-04-26T19:57:24.456Z,98.30
2018-04-26T19:59:52.004Z,98.30
2018-04-26T20:02:19.564Z,97.90
2018-04-26T20:04:47.096Z,97.70
2018-04-26T20:07:14.687Z,97.60
2018-04-26T20:09:42.224Z,97.30
2018-04-26T20:12:09.791Z,97.40
2018-04-26T20:14:37.357Z,97.50
2018-04-26T20:17:04.922Z,97.60
2018-04-26T20:19:32.462Z,97.60
2018-04-26T20:22:00.038Z,97.80
2018-04-26T20:24:27.582Z,97.70
2018-04-26T20:26:55.150Z,97.80
2018-04-26T20:29:22.730Z,97.90
2018-04-26T20:31:50.315Z,98.20
2018-04-26T20:34:17.954Z,98.50
2018-04-26T20:36:45.503Z,98.60
2018-04-26T20:39:13.076Z,98.90
2018-04-26T20:41:53.435Z,98.80
2018-04-26T20:44:32.892Z,99.00
2018-04-26T20:47:00.427Z,99.00
2018-04-26T20:49:27.979Z,99.00
2018-04-26T20:51:55.529Z,99.20
2018-04-26T20:54:23.084Z,99.10
2018-04-26T20:56:50.610Z,99.10
2018-04-26T20:59:18.165Z,99.30
2018-04-26T21:01:45.698Z,99.20
2018-04-26T21:04:13.265Z,99.40
2018-04-26T21:06:40.806Z,99.30
2018-04-26T21:09:08.382Z,99.40
2018-04-26T21:11:35.928Z,99.30
2018-04-26T21:14:03.555Z,99.10
2018-04-26T21:16:32.051Z,99.10
2018-04-26T21:18:59.613Z,99.10
2018-04-26T21:21:27.157Z,98.90
2018-04-26T21:23:55.783Z,98.90
2018-04-26T21:26:23.372Z,98.90
2018-04-26T21:28:50.944Z,98.80
2018-04-26T21:31:18.508Z,98.70
2018-04-26T21:33:46.546Z,98.70
2018-04-26T21:36:14.154Z,98.30
2018-04-26T21:38:41.721Z,98.50
2018-04-26T21:41:10.393Z,98.10
2018-04-26T21:43:38.714Z,98.10
2018-04-26T21:46:06.304Z,98.10
2018-04-26T21:48:33.846Z,97.90
2018-04-26T21:51:07.068Z,97.90
2018-04-26T21:53:40.303Z,98.40
2018-04-26T21:56:13.461Z,98.30
2018-04-26T21:58:46.733Z,98.60
2018-04-26T22:01:19.885Z,98.50
2018-04-26T22:03:51.062Z,98.90
2018-04-26T22:06:18.636Z,98.90
2018-04-26T22:08:46.225Z,98.90
2018-04-26T22:11:13.792Z,99.00
2018-04-26T22:13:42.294Z,99.00
2018-04-26T22:16:10.629Z,99.50
2018-04-26T22:18:38.249Z,99.50
2018-04-26T22:21:05.830Z,99.50
2018-04-26T22:23:33.388Z,99.80
2018-04-26T22:26:00.919Z,99.80
2018-04-26T22:28:29.232Z,99.90
2018-04-26T22:30:56.772Z,99.90
2018-04-26T22:33:24.337Z,99.90
2018-04-26T22:35:51.881Z,99.90
2018-04-26T22:38:19.440Z,99.90
2018-04-26T22:40:46.981Z,99.90
2018-04-26T22:43:15.366Z,99.90
2018-04-26T22:45:42.922Z,99.90
2018-04-26T22:48:11.259Z,99.90
2018-04-26T22:50:38.796Z,99.90
2018-04-26T22:53:06.322Z,99.90
2018-04-26T22:55:34.663Z,99.90
2018-04-26T22:58:02.204Z,99.90
2018-04-26T23:00:29.755Z,99.90
2018-04-26T23:02:57.296Z,99.90
2018-04-26T23:05:24.864Z,99.90
2018-04-26T23:07:52.404Z,99.90
2018-04-26T23:10:20.741Z,99.90
2018-04-26T23:12:48.303Z,99.90
2018-04-26T23:15:15.882Z,99.90
2018-04-26T23:17:43.433Z,99.90
2018-04-26T23:20:10.997Z,99.90
2018-04-26T23:22:38.540Z,99.90
2018-04-26T23:25:06.100Z,99.90
2018-04-26T23:27:33.655Z,99.90
2018-04-26T23:30:01.224Z,99.90
2018-04-26T23:32:28.865Z,99.90
2018-04-26T23:34:56.398Z,99.90
2018-04-26T23:37:24.760Z,99.90
2018-04-26T23:39:53.065Z,99.90
2018-04-26T23:42:20.625Z,99.90
2018-04-26T23:44:48.166Z,99.90
2018-04-26T23:47:16.495Z,99.90
2018-04-26T23:49:44.045Z,99.90
2018-04-26T23:52:11.619Z,99.90
2018-04-26T23:54:39.146Z,99.90
2018-04-26T23:57:06.714Z,99.90
2018-04-26T23:59:34.257Z,99.90
